Time;durP1;ratioP1;P1;durP2;ratioP2;P2;SDS_P1;SDS_P2;PMS_P1;PMS_P2;Temp;Humidity;BMP_temperature;BMP_pressure;BME280_temperature;BME280_humidity;BME280_pressure;Samples;Min_cycle;Max_cycle;Signal;HPM_P1;HPM_P2
2023/08/30 00:00:10;;;;;;;1.73;1.30;;;24.30;57.00;;;;;;5034079;28;20180;-67
2023/08/30 00:02:36;;;;;;;1.60;1.20;;;24.30;57.00;;;;;;5033965;28;20199;-67
2023/08/30 00:05:04;;;;;;;1.77;1.40;;;24.30;57.00;;;;;;5033913;28;20560;-67
2023/08/30 00:07:30;;;;;;;1.43;1.20;;;24.30;57.00;;;;;;5033899;28;20421;-67
2023/08/30 00:09:58;;;;;;;1.70;1.17;;;24.30;57.00;;;;;;5033970;28;20463;-67
2023/08/30 00:12:25;;;;;;;2.20;1.70;;;24.30;57.00;;;;;;5033801;28;20478;-67
2023/08/30 00:14:51;;;;;;;1.40;1.20;;;24.30;57.00;;;;;;5033782;28;20414;-67
2023/08/30 00:17:16;;;;;;;1.43;1.20;;;24.20;56.90;;;;;;5034077;28;20411;-68
2023/08/30 00:19:42;;;;;;;2.27;1.50;;;24.30;57.00;;;;;;5033766;28;20429;-67
2023/08/30 00:22:07;;;;;;;1.40;1.20;;;24.20;56.90;;;;;;5033660;28;20203;-68
2023/08/30 00:24:34;;;;;;;1.63;1.20;;;24.30;57.00;;;;;;5033581;28;20222;-68
2023/08/30 00:27:01;;;;;;;2.13;1.33;;;24.20;56.90;;;;;;5033635;28;20613;-67
2023/08/30 00:29:30;;;;;;;1.30;1.20;;;24.20;56.90;;;;;;5033581;28;20414;-67
2023/08/30 00:31:56;;;;;;;1.97;1.50;;;24.20;56.90;;;;;;5033274;28;21020;-68
2023/08/30 00:34:22;;;;;;;2.13;1.40;;;24.30;57.00;;;;;;5033382;28;20506;-67
2023/08/30 00:36:48;;;;;;;1.60;1.40;;;24.20;56.90;;;;;;5033427;28;20218;-67
2023/08/30 00:39:13;;;;;;;2.50;1.40;;;24.30;57.00;;;;;;5033398;28;20179;-66
2023/08/30 00:41:39;;;;;;;2.13;1.30;;;24.20;57.00;;;;;;5033278;28;20462;-67
2023/08/30 00:44:05;;;;;;;1.30;1.10;;;24.30;57.00;;;;;;5033262;28;20176;-68
2023/08/30 00:46:32;;;;;;;2.80;1.27;;;24.20;56.90;;;;;;5033125;28;20200;-68
2023/08/30 00:48:59;;;;;;;1.87;1.60;;;24.20;57.00;;;;;;5033135;28;20410;-68
2023/08/30 00:51:26;;;;;;;2.60;1.57;;;24.20;56.90;;;;;;5033069;28;20967;-68
2023/08/30 00:53:52;;;;;;;2.13;1.43;;;24.20;57.00;;;;;;5033057;28;20417;-67
2023/08/30 00:56:19;;;;;;;3.83;1.40;;;24.30;57.00;;;;;;5033040;28;20429;-67
2023/08/30 00:58:45;;;;;;;1.37;0.90;;;24.20;57.00;;;;;;5033017;28;20828;-67
2023/08/30 01:01:11;;;;;;;1.67;1.40;;;24.20;57.00;;;;;;5032323;28;20483;-68
2023/08/30 01:03:37;;;;;;;1.60;1.37;;;24.20;57.00;;;;;;5032824;28;20175;-68
2023/08/30 01:06:03;;;;;;;1.40;1.10;;;24.20;57.00;;;;;;5032785;28;20880;-67
2023/08/30 01:08:29;;;;;;;2.00;1.27;;;24.20;57.00;;;;;;5033057;28;20564;-68
2023/08/30 01:11:28;;;;;;;1.20;1.10;;;24.20;57.00;;;;;;5032679;28;20196;-67
2023/08/30 01:14:00;;;;;;;1.80;1.40;;;24.20;57.00;;;;;;5032780;28;20168;-68
2023/08/30 01:16:26;;;;;;;1.97;1.20;;;24.20;57.00;;;;;;5032688;28;20453;-68
2023/08/30 01:18:55;;;;;;;1.53;1.07;;;24.20;57.00;;;;;;5032846;28;20781;-67
2023/08/30 01:21:41;;;;;;;1.83;1.10;;;24.20;57.00;;;;;;5032501;28;20449;-67
2023/08/30 01:24:12;;;;;;;1.63;1.10;;;24.20;57.00;;;;;;5032533;28;20394;-68
2023/08/30 01:27:03;;;;;;;1.97;1.50;;;24.20;57.00;;;;;;5032528;28;20871;-68
2023/08/30 01:29:30;;;;;;;1.83;1.20;;;24.20;57.00;;;;;;5032447;28;20406;-68
2023/08/30 01:31:56;;;;;;;1.50;1.27;;;24.20;57.10;;;;;;5032203;28;20453;-67
2023/08/30 01:34:22;;;;;;;2.00;1.00;;;24.20;57.10;;;;;;5032352;28;20421;-68
2023/08/30 01:36:49;;;;;;;2.03;1.50;;;24.20;57.00;;;;;;5032321;28;20795;-67
2023/08/30 01:39:15;;;;;;;2.13;1.20;;;24.20;57.00;;;;;;5032062;28;20463;-67
2023/08/30 01:41:41;;;;;;;1.97;1.10;;;24.20;57.00;;;;;;5032385;28;20434;-67
2023/08/30 01:44:09;;;;;;;1.83;1.00;;;24.20;57.10;;;;;;5032203;28;20918;-67
2023/08/30 01:46:35;;;;;;;1.73;1.30;;;24.20;57.10;;;;;;5031698;28;20199;-67
2023/08/30 01:49:06;;;;;;;1.70;1.17;;;24.20;57.00;;;;;;5032137;28;20904;-68
2023/08/30 01:51:33;;;;;;;1.53;1.20;;;24.20;57.60;;;;;;5032079;28;20430;-67
2023/08/30 01:53:59;;;;;;;1.70;1.17;;;24.20;57.00;;;;;;5032064;28;20410;-67
2023/08/30 01:56:24;;;;;;;1.60;1.43;;;24.20;57.00;;;;;;5031131;28;20950;-67
2023/08/30 01:58:50;;;;;;;2.07;1.40;;;24.20;57.10;;;;;;5032003;28;20449;-67
2023/08/30 02:01:16;;;;;;;1.50;1.20;;;24.20;57.10;;;;;;5031901;28;20195;-68
2023/08/30 02:03:44;;;;;;;1.63;1.20;;;24.20;57.10;;;;;;5032011;28;20175;-67
2023/08/30 02:06:52;;;;;;;1.50;1.20;;;24.20;57.00;;;;;;5031862;28;20639;-67
2023/08/30 02:09:25;;;;;;;1.70;1.20;;;24.20;57.00;;;;;;5027965;28;20434;-66
2023/08/30 02:11:52;;;;;;;1.47;1.10;;;24.20;57.10;;;;;;5031858;28;20423;-67
2023/08/30 02:14:21;;;;;;;1.73;1.13;;;24.20;57.10;;;;;;5031806;28;20424;-66
2023/08/30 02:16:47;;;;;;;1.30;0.90;;;24.20;57.10;;;;;;5031769;28;20443;-68
2023/08/30 02:19:16;;;;;;;1.50;1.00;;;24.20;57.10;;;;;;5032041;28;20430;-67
2023/08/30 02:21:42;;;;;;;1.30;1.10;;;24.20;57.10;;;;;;5031717;28;20434;-67
2023/08/30 02:24:08;;;;;;;1.10;0.90;;;24.20;57.10;;;;;;5031750;28;20415;-67
2023/08/30 02:26:34;;;;;;;2.50;1.20;;;24.20;57.10;;;;;;5031922;28;20673;-68
2023/08/30 02:28:59;;;;;;;1.80;1.30;;;24.20;57.10;;;;;;5031739;28;20453;-67
2023/08/30 02:31:25;;;;;;;1.20;1.10;;;24.20;57.10;;;;;;5031766;28;20219;-67
2023/08/30 02:33:50;;;;;;;1.57;1.30;;;24.20;57.10;;;;;;5031704;28;20215;-68
2023/08/30 02:36:16;;;;;;;1.40;1.17;;;24.20;57.10;;;;;;5031598;28;20246;-68
2023/08/30 02:38:42;;;;;;;1.30;1.10;;;24.20;57.10;;;;;;5031635;28;20180;-67
2023/08/30 02:41:07;;;;;;;1.70;1.20;;;24.20;57.10;;;;;;5031558;28;20202;-67
2023/08/30 02:43:33;;;;;;;1.60;1.20;;;24.20;57.10;;;;;;5031631;28;20653;-67
2023/08/30 02:46:01;;;;;;;1.43;1.00;;;24.10;57.10;;;;;;5031482;28;20665;-67
2023/08/30 02:48:26;;;;;;;1.67;0.90;;;24.10;57.00;;;;;;5031556;28;20258;-67
2023/08/30 02:50:52;;;;;;;1.20;0.97;;;24.20;57.10;;;;;;5031438;28;20457;-68
2023/08/30 02:53:17;;;;;;;1.10;0.80;;;24.10;57.00;;;;;;5031514;28;20176;-67
2023/08/30 02:55:43;;;;;;;1.40;1.20;;;24.20;57.10;;;;;;5030231;28;20681;-68
2023/08/30 02:58:08;;;;;;;3.00;1.30;;;24.20;57.10;;;;;;5032899;28;20222;-66
2023/08/30 03:00:34;;;;;;;1.77;1.20;;;24.20;57.70;;;;;;5035165;28;20637;-68
2023/08/30 03:03:00;;;;;;;1.30;1.00;;;24.10;57.00;;;;;;5035155;28;20183;-67
2023/08/30 03:05:26;;;;;;;2.00;1.03;;;24.10;57.00;;;;;;5035028;28;20230;-67
2023/08/30 03:07:53;;;;;;;1.23;1.00;;;24.20;57.10;;;;;;5035104;28;20306;-67
2023/08/30 03:10:19;;;;;;;1.67;1.27;;;24.10;57.00;;;;;;5034976;28;20414;-68
2023/08/30 03:12:44;;;;;;;1.10;1.00;;;24.10;57.00;;;;;;5034938;28;20808;-67
2023/08/30 03:15:10;;;;;;;1.57;1.20;;;24.10;57.00;;;;;;5034984;28;20660;-68
2023/08/30 03:17:36;;;;;;;1.07;0.90;;;24.20;57.10;;;;;;5034943;28;20175;-67
2023/08/30 03:20:03;;;;;;;1.50;1.00;;;24.20;57.10;;;;;;5034888;28;20410;-68
2023/08/30 03:22:30;;;;;;;1.20;1.00;;;24.10;57.00;;;;;;5033454;28;20433;-66
2023/08/30 03:24:56;;;;;;;1.50;1.10;;;24.10;57.10;;;;;;5033544;28;21016;-67
2023/08/30 03:27:21;;;;;;;1.67;1.20;;;24.10;57.00;;;;;;5034758;28;20415;-67
2023/08/30 03:29:47;;;;;;;1.20;1.10;;;24.10;57.00;;;;;;5034701;28;20167;-67
2023/08/30 03:32:18;;;;;;;1.47;1.10;;;24.10;57.00;;;;;;5034431;28;20203;-67
2023/08/30 03:34:48;;;;;;;1.33;1.07;;;24.10;57.00;;;;;;5034644;28;20156;-68
2023/08/30 03:37:14;;;;;;;1.67;1.00;;;24.10;57.10;;;;;;5034549;28;20413;-67
2023/08/30 03:39:40;;;;;;;1.00;0.80;;;24.10;57.10;;;;;;5034482;28;20502;-68
2023/08/30 03:42:06;;;;;;;1.47;1.00;;;24.10;57.10;;;;;;5033118;28;20521;-67
2023/08/30 03:44:32;;;;;;;1.40;1.00;;;24.10;57.10;;;;;;5034605;28;20167;-67
2023/08/30 03:46:57;;;;;;;1.43;1.13;;;24.10;57.10;;;;;;5034113;28;20406;-67
2023/08/30 03:49:23;;;;;;;1.33;1.00;;;24.10;57.60;;;;;;5034291;28;20636;-67
2023/08/30 03:51:49;;;;;;;1.80;1.00;;;24.10;57.10;;;;;;5034112;28;20464;-67
2023/08/30 03:54:16;;;;;;;1.10;0.97;;;24.10;57.10;;;;;;5034248;28;20452;-67
2023/08/30 03:56:45;;;;;;;1.40;1.20;;;24.10;57.60;;;;;;5034445;28;20622;-67
2023/08/30 03:59:11;;;;;;;1.40;1.00;;;24.10;57.00;;;;;;5033196;28;20430;-68
2023/08/30 04:01:37;;;;;;;1.57;1.13;;;24.10;57.10;;;;;;5034018;28;20438;-67
2023/08/30 04:04:03;;;;;;;1.60;0.90;;;24.10;57.10;;;;;;5032812;28;20816;-67
2023/08/30 04:06:28;;;;;;;1.63;1.33;;;24.10;57.60;;;;;;5034149;28;20188;-68
2023/08/30 04:08:54;;;;;;;3.00;1.10;;;24.10;57.10;;;;;;5033306;28;20172;-67
2023/08/30 04:11:20;;;;;;;1.03;0.80;;;24.10;57.10;;;;;;5034126;28;20319;-67
2023/08/30 04:13:45;;;;;;;1.20;1.00;;;24.10;57.10;;;;;;5033931;28;20167;-67
2023/08/30 04:16:11;;;;;;;1.23;1.00;;;24.10;57.10;;;;;;5033830;28;20175;-67
2023/08/30 04:18:36;;;;;;;1.67;1.27;;;24.10;57.60;;;;;;5033814;28;20180;-67
2023/08/30 04:21:02;;;;;;;1.00;0.90;;;24.10;57.10;;;;;;5032389;28;20550;-67
2023/08/30 04:23:29;;;;;;;1.67;1.33;;;24.10;57.10;;;;;;5034013;28;20204;-68
2023/08/30 04:25:55;;;;;;;2.07;1.23;;;24.10;57.10;;;;;;5033618;28;20200;-67
2023/08/30 04:28:20;;;;;;;1.60;1.00;;;24.10;57.10;;;;;;5033612;28;20438;-66
2023/08/30 04:30:46;;;;;;;1.40;0.90;;;24.10;57.10;;;;;;5033364;28;20445;-68
2023/08/30 04:33:12;;;;;;;1.40;1.10;;;24.10;57.10;;;;;;5033570;28;20179;-67
2023/08/30 04:35:38;;;;;;;1.43;1.00;;;24.10;57.10;;;;;;5033468;28;20255;-67
2023/08/30 04:38:04;;;;;;;1.73;1.10;;;24.10;57.10;;;;;;5033670;28;20186;-67
2023/08/30 04:40:30;;;;;;;1.40;0.90;;;24.10;57.10;;;;;;5033600;28;20971;-67
2023/08/30 04:42:56;;;;;;;1.20;0.90;;;24.10;57.10;;;;;;5033561;28;20245;-67
2023/08/30 04:45:22;;;;;;;1.00;0.87;;;24.10;57.10;;;;;;5033153;28;20434;-67
2023/08/30 04:47:48;;;;;;;1.50;1.27;;;24.10;57.10;;;;;;5033193;28;20545;-67
2023/08/30 04:50:14;;;;;;;1.20;1.00;;;24.10;57.10;;;;;;5033238;28;20645;-67
2023/08/30 04:52:40;;;;;;;1.40;0.80;;;24.10;57.10;;;;;;5033013;28;20477;-67
2023/08/30 04:55:06;;;;;;;1.30;1.00;;;24.10;57.10;;;;;;5033133;28;20175;-67
2023/08/30 04:57:31;;;;;;;1.27;1.00;;;24.10;57.10;;;;;;5033017;28;20210;-67
2023/08/30 04:59:57;;;;;;;1.00;0.90;;;24.10;57.10;;;;;;5032965;28;20461;-67
2023/08/30 05:02:23;;;;;;;1.30;1.00;;;24.10;57.10;;;;;;5032790;28;20278;-67
2023/08/30 05:04:48;;;;;;;1.10;0.97;;;24.00;57.10;;;;;;5032827;28;20282;-66
2023/08/30 05:07:14;;;;;;;1.33;1.20;;;24.10;57.70;;;;;;5032844;28;20283;-66
2023/08/30 05:09:40;;;;;;;1.70;0.97;;;24.10;57.10;;;;;;5032838;28;20648;-67
2023/08/30 05:12:06;;;;;;;1.00;0.90;;;24.10;57.20;;;;;;5032773;28;20192;-67
2023/08/30 05:14:32;;;;;;;1.60;1.33;;;24.10;57.20;;;;;;5031348;28;20515;-67
2023/08/30 05:16:58;;;;;;;1.30;0.90;;;24.00;57.10;;;;;;5031491;28;20445;-67
2023/08/30 05:19:23;;;;;;;2.07;1.10;;;24.00;57.10;;;;;;5032612;28;20172;-67
2023/08/30 05:21:54;;;;;;;1.30;0.83;;;24.10;57.10;;;;;;5031569;28;20195;-67
2023/08/30 05:24:20;;;;;;;1.30;0.97;;;24.10;57.20;;;;;;5032613;28;20156;-68
2023/08/30 05:26:46;;;;;;;1.40;1.00;;;24.10;57.20;;;;;;5032634;28;20871;-67
2023/08/30 05:29:13;;;;;;;1.30;0.90;;;24.00;57.10;;;;;;5032515;28;20926;-67
2023/08/30 05:31:39;;;;;;;1.73;0.97;;;24.10;57.20;;;;;;5032502;28;20450;-67
2023/08/30 05:34:04;;;;;;;1.30;0.90;;;24.00;57.10;;;;;;5032365;28;20985;-68
2023/08/30 05:36:30;;;;;;;1.10;0.90;;;24.10;57.20;;;;;;5032326;28;20258;-67
2023/08/30 05:38:56;;;;;;;1.20;1.00;;;24.00;57.10;;;;;;5032611;28;20190;-67
2023/08/30 05:41:21;;;;;;;1.30;1.00;;;24.00;57.10;;;;;;5032494;28;20241;-66
2023/08/30 05:43:47;;;;;;;1.10;1.00;;;24.10;57.20;;;;;;5032490;28;20183;-67
2023/08/30 05:46:14;;;;;;;1.17;0.90;;;24.00;57.10;;;;;;5032090;28;20298;-68
2023/08/30 05:48:40;;;;;;;1.20;1.00;;;24.10;57.20;;;;;;5032166;28;20210;-67
2023/08/30 05:51:06;;;;;;;1.10;0.90;;;24.00;57.10;;;;;;5032073;28;20454;-67
2023/08/30 05:53:31;;;;;;;1.00;0.87;;;24.00;57.10;;;;;;5032094;28;20172;-67
2023/08/30 05:55:57;;;;;;;1.30;1.20;;;24.10;57.20;;;;;;5032103;28;20226;-67
2023/08/30 05:58:23;;;;;;;1.00;0.90;;;24.00;57.10;;;;;;5032324;28;20164;-67
2023/08/30 06:00:48;;;;;;;1.07;0.90;;;24.00;57.10;;;;;;5032214;28;20180;-67
2023/08/30 06:03:14;;;;;;;1.10;0.93;;;24.00;57.10;;;;;;5031958;28;20767;-67
2023/08/30 06:05:39;;;;;;;1.00;0.80;;;24.00;57.10;;;;;;5031941;28;20249;-66
2023/08/30 06:08:05;;;;;;;1.10;0.83;;;24.00;57.10;;;;;;5031938;28;20164;-67
2023/08/30 06:10:31;;;;;;;1.20;0.87;;;24.00;57.10;;;;;;5031854;28;20168;-67
2023/08/30 06:12:56;;;;;;;1.13;0.87;;;24.00;57.10;;;;;;5031898;28;20413;-66
2023/08/30 06:15:22;;;;;;;1.20;0.90;;;24.00;57.10;;;;;;5031880;28;20640;-68
2023/08/30 06:17:48;;;;;;;1.50;1.10;;;24.00;57.10;;;;;;5031876;28;20201;-68
2023/08/30 06:20:13;;;;;;;1.13;0.90;;;24.00;57.70;;;;;;5031744;28;20641;-67
2023/08/30 06:22:41;;;;;;;1.30;1.00;;;24.00;57.10;;;;;;5030493;28;20207;-67
2023/08/30 06:25:07;;;;;;;1.33;1.10;;;24.00;57.10;;;;;;5031696;28;20187;-67
2023/08/30 06:27:32;;;;;;;1.40;1.10;;;24.00;57.10;;;;;;5030116;28;20923;-67
2023/08/30 06:29:58;;;;;;;1.10;0.90;;;24.00;57.10;;;;;;5031703;28;20251;-67
2023/08/30 06:32:24;;;;;;;1.43;0.87;;;24.00;57.10;;;;;;5033034;28;20207;-67
2023/08/30 06:34:49;;;;;;;1.00;0.80;;;24.00;57.10;;;;;;5035591;28;20222;-68
2023/08/30 06:37:15;;;;;;;1.30;0.83;;;24.00;57.10;;;;;;5035583;28;20251;-67
2023/08/30 06:39:40;;;;;;;1.20;0.90;;;24.00;57.10;;;;;;5035540;28;20703;-68
2023/08/30 06:42:06;;;;;;;1.33;1.10;;;24.00;57.20;;;;;;5035269;28;20217;-67
2023/08/30 06:44:32;;;;;;;1.37;1.23;;;24.00;57.10;;;;;;5035788;28;20222;-68
2023/08/30 06:46:57;;;;;;;1.50;1.30;;;24.00;57.20;;;;;;5033230;28;20570;-67
2023/08/30 06:49:24;;;;;;;1.23;1.00;;;24.00;57.10;;;;;;5035400;28;20167;-67
2023/08/30 06:51:49;;;;;;;1.13;0.87;;;24.00;57.10;;;;;;5035195;28;20688;-68
2023/08/30 06:54:15;;;;;;;1.30;1.10;;;24.00;57.10;;;;;;5033933;28;20442;-67
2023/08/30 06:56:46;;;;;;;1.80;1.27;;;24.00;57.10;;;;;;5035288;28;20175;-68
2023/08/30 06:59:12;;;;;;;3.70;1.20;;;24.00;57.10;;;;;;5035266;28;20167;-67
2023/08/30 07:01:37;;;;;;;2.20;1.10;;;24.00;57.20;;;;;;5035104;28;20430;-68
2023/08/30 07:04:06;;;;;;;1.30;1.00;;;24.00;57.10;;;;;;5034723;28;20577;-67
2023/08/30 07:06:32;;;;;;;1.80;1.30;;;24.00;57.20;;;;;;5033353;28;20572;-68
2023/08/30 07:08:57;;;;;;;1.80;1.00;;;24.00;57.10;;;;;;5034572;28;20428;-68
2023/08/30 07:11:23;;;;;;;1.97;1.30;;;24.00;57.20;;;;;;5033009;28;20219;-67
2023/08/30 07:13:49;;;;;;;1.30;1.17;;;24.00;57.10;;;;;;5033173;28;20192;-65
2023/08/30 07:16:15;;;;;;;2.03;1.43;;;24.00;57.20;;;;;;5033171;28;20179;-68
2023/08/30 07:18:40;;;;;;;2.00;1.30;;;24.00;57.20;;;;;;5034681;28;20930;-68
2023/08/30 07:21:06;;;;;;;1.90;1.13;;;24.00;57.10;;;;;;5034639;28;20203;-67
2023/08/30 07:23:31;;;;;;;1.43;1.10;;;24.00;57.10;;;;;;5032572;28;20207;-68
2023/08/30 07:25:57;;;;;;;1.57;1.00;;;24.00;57.10;;;;;;5034426;28;20282;-66
2023/08/30 07:28:22;;;;;;;2.17;1.47;;;24.00;57.10;;;;;;5034671;28;20178;-67
2023/08/30 07:30:48;;;;;;;1.93;1.27;;;24.00;57.10;;;;;;5034446;28;20191;-67
2023/08/30 07:33:14;;;;;;;2.23;1.50;;;24.00;57.10;;;;;;5034648;28;20618;-67
2023/08/30 07:35:40;;;;;;;1.50;1.17;;;24.00;57.10;;;;;;5034541;28;20552;-67
2023/08/30 07:38:06;;;;;;;1.50;1.40;;;24.00;57.10;;;;;;5034509;28;20178;-68
2023/08/30 07:40:31;;;;;;;1.60;1.20;;;24.00;57.00;;;;;;5034582;28;20505;-67
2023/08/30 07:42:57;;;;;;;1.40;1.20;;;24.00;57.00;;;;;;5033690;28;20184;-67
2023/08/30 07:45:22;;;;;;;1.40;1.30;;;24.00;57.00;;;;;;5033696;28;20234;-68
2023/08/30 07:47:48;;;;;;;1.70;1.60;;;24.00;57.10;;;;;;5034426;28;20262;-67
2023/08/30 07:50:13;;;;;;;1.60;1.17;;;24.00;57.10;;;;;;5034488;28;20186;-68
2023/08/30 07:52:39;;;;;;;1.77;1.47;;;24.00;57.10;;;;;;5034055;28;20286;-66
2023/08/30 07:55:05;;;;;;;1.60;1.43;;;24.00;57.10;;;;;;5032961;28;20180;-68
2023/08/30 07:57:30;;;;;;;1.90;1.60;;;24.00;57.20;;;;;;5034281;28;20180;-68
2023/08/30 07:59:56;;;;;;;5.60;1.80;;;24.00;57.10;;;;;;5033048;28;20180;-68
2023/08/30 08:02:22;;;;;;;2.27;1.30;;;24.00;57.10;;;;;;5033901;28;20203;-67
2023/08/30 08:04:49;;;;;;;1.53;1.30;;;24.00;57.10;;;;;;5031716;28;20179;-70
2023/08/30 08:07:15;;;;;;;1.50;1.40;;;24.00;57.20;;;;;;5033215;28;20254;-68
2023/08/30 08:09:40;;;;;;;2.77;1.93;;;24.00;57.70;;;;;;5033802;28;21035;-68
2023/08/30 08:12:06;;;;;;;2.93;1.87;;;24.00;57.10;;;;;;5033783;28;20214;-68
2023/08/30 08:14:32;;;;;;;1.50;1.40;;;24.00;57.20;;;;;;5033776;28;20242;-67
2023/08/30 08:16:57;;;;;;;1.90;1.70;;;24.00;57.20;;;;;;5033642;28;20172;-66
2023/08/30 08:19:23;;;;;;;5.93;2.43;;;24.00;57.10;;;;;;5033608;28;20180;-66
2023/08/30 08:21:49;;;;;;;1.80;1.70;;;24.00;57.10;;;;;;5033547;28;20198;-66
2023/08/30 08:24:15;;;;;;;3.33;2.03;;;24.00;57.10;;;;;;5033544;28;20174;-66
2023/08/30 08:26:40;;;;;;;2.30;2.10;;;24.00;57.20;;;;;;5033126;28;20231;-67
2023/08/30 08:29:06;;;;;;;1.90;1.67;;;24.00;57.10;;;;;;5033426;28;20687;-66
2023/08/30 08:31:31;;;;;;;2.50;2.00;;;24.00;57.10;;;;;;5033418;28;20207;-67
2023/08/30 08:34:09;;;;;;;3.80;2.50;;;24.00;57.10;;;;;;5033328;28;20184;-68
2023/08/30 08:36:35;;;;;;;2.50;2.30;;;24.00;57.10;;;;;;5037273;28;20202;-67
2023/08/30 08:39:02;;;;;;;3.60;3.07;;;24.00;57.10;;;;;;5046625;28;20458;-68
2023/08/30 08:41:38;;;;;;;3.73;3.33;;;24.10;57.20;;;;;;5033144;28;20521;-68
2023/08/30 08:44:06;;;;;;;5.03;3.30;;;24.10;57.20;;;;;;5033119;28;20874;-67
2023/08/30 08:46:33;;;;;;;3.77;2.40;;;24.10;57.10;;;;;;5032043;28;20464;-70
2023/08/30 08:49:01;;;;;;;2.47;2.13;;;24.10;57.20;;;;;;5030241;28;20414;-69
2023/08/30 08:51:27;;;;;;;3.90;2.20;;;24.10;57.30;;;;;;5032959;28;20430;-69
2023/08/30 08:54:01;;;;;;;2.90;2.50;;;24.10;57.20;;;;;;5032989;28;20436;-69
2023/08/30 08:56:27;;;;;;;2.50;2.30;;;24.10;57.20;;;;;;5032794;28;20399;-69
2023/08/30 08:58:53;;;;;;;4.13;2.80;;;24.10;57.60;;;;;;5032871;28;20476;-69
2023/08/30 09:01:19;;;;;;;3.43;2.60;;;24.10;57.20;;;;;;5032887;28;20431;-67
2023/08/30 09:03:45;;;;;;;3.20;2.47;;;24.20;57.20;;;;;;5032837;28;20271;-68
2023/08/30 09:06:10;;;;;;;3.10;2.50;;;24.20;57.20;;;;;;5032679;28;20537;-68
2023/08/30 09:08:36;;;;;;;3.50;2.57;;;24.10;57.10;;;;;;5032529;28;20214;-67
2023/08/30 09:11:02;;;;;;;3.10;2.40;;;24.20;57.20;;;;;;5032233;28;20664;-68
2023/08/30 09:13:30;;;;;;;3.90;2.57;;;24.20;57.20;;;;;;5032650;28;20176;-68
2023/08/30 09:15:56;;;;;;;3.20;2.30;;;24.20;57.10;;;;;;5032745;28;20505;-67
2023/08/30 09:18:27;;;;;;;3.10;2.70;;;24.20;57.10;;;;;;5032579;28;20982;-68
2023/08/30 09:20:53;;;;;;;2.80;2.50;;;24.20;57.10;;;;;;5032558;28;20229;-69
2023/08/30 09:23:21;;;;;;;2.70;2.50;;;24.20;57.10;;;;;;5031394;28;20415;-68
2023/08/30 09:25:55;;;;;;;4.17;3.10;;;24.20;57.10;;;;;;5031163;28;20442;-69
2023/08/30 09:28:21;;;;;;;2.90;2.70;;;24.30;57.10;;;;;;5031432;28;20391;-68
2023/08/30 09:30:50;;;;;;;3.00;2.70;;;24.30;57.10;;;;;;5031041;28;20441;-69
2023/08/30 09:33:21;;;;;;;3.60;2.63;;;24.30;57.10;;;;;;5031336;28;20464;-67
2023/08/30 09:35:47;;;;;;;2.43;2.10;;;24.30;57.10;;;;;;5031309;28;20387;-68
2023/08/30 09:38:19;;;;;;;2.77;2.57;;;24.30;57.00;;;;;;5032263;28;20421;-68
2023/08/30 09:40:45;;;;;;;5.43;2.77;;;24.30;57.00;;;;;;5032284;28;20653;-68
2023/08/30 09:43:12;;;;;;;2.77;2.40;;;24.30;57.00;;;;;;5032250;28;20411;-68
2023/08/30 09:45:38;;;;;;;4.10;2.60;;;24.30;57.50;;;;;;5032096;28;20446;-67
2023/08/30 09:48:05;;;;;;;2.70;2.50;;;24.30;57.50;;;;;;5032234;28;20784;-68
2023/08/30 09:50:35;;;;;;;3.17;2.80;;;24.30;56.90;;;;;;5031462;28;20490;-68
2023/08/30 09:53:07;;;;;;;2.40;2.20;;;24.30;56.90;;;;;;5030889;28;20410;-69
2023/08/30 09:55:33;;;;;;;5.17;2.50;;;24.30;57.00;;;;;;5031446;28;20390;-68
2023/08/30 09:58:01;;;;;;;3.53;2.87;;;24.30;56.90;;;;;;5031709;28;20517;-69
2023/08/30 10:00:27;;;;;;;2.50;2.30;;;24.30;56.90;;;;;;5031791;28;20410;-68
2023/08/30 10:02:54;;;;;;;3.53;2.67;;;24.40;57.00;;;;;;5031934;28;20433;-69
2023/08/30 10:05:20;;;;;;;2.77;2.50;;;24.40;57.00;;;;;;5031917;28;20477;-69
2023/08/30 10:07:46;;;;;;;2.37;2.17;;;24.40;57.00;;;;;;5031402;28;20434;-68
2023/08/30 10:10:12;;;;;;;3.40;2.90;;;24.40;57.00;;;;;;5031961;28;20410;-67
2023/08/30 10:12:40;;;;;;;2.70;2.50;;;24.40;56.90;;;;;;5031860;28;20422;-70
2023/08/30 10:15:06;;;;;;;2.60;2.40;;;24.40;56.90;;;;;;5031848;28;20183;-68
2023/08/30 10:17:35;;;;;;;2.90;2.60;;;24.40;56.90;;;;;;5031837;28;20406;-68
2023/08/30 10:20:06;;;;;;;2.47;2.27;;;24.40;57.00;;;;;;5031803;28;20649;-68
2023/08/30 10:22:35;;;;;;;3.23;2.93;;;24.40;56.90;;;;;;5032036;28;21042;-68
2023/08/30 10:25:04;;;;;;;3.00;2.40;;;24.40;56.90;;;;;;5031799;28;20480;-67
2023/08/30 10:27:32;;;;;;;2.77;2.57;;;24.40;56.90;;;;;;5031643;28;20419;-68
2023/08/30 10:30:01;;;;;;;3.27;2.80;;;24.40;56.90;;;;;;5031727;28;20406;-68
2023/08/30 10:32:26;;;;;;;2.30;2.10;;;24.40;56.90;;;;;;5031624;28;20445;-68
2023/08/30 10:34:52;;;;;;;2.20;1.97;;;24.40;56.90;;;;;;5031692;28;20418;-68
2023/08/30 10:37:26;;;;;;;3.03;2.10;;;24.50;57.00;;;;;;5031722;28;20160;-68
2023/08/30 10:39:52;;;;;;;3.57;2.73;;;24.50;57.00;;;;;;5031666;28;20163;-68
2023/08/30 10:42:22;;;;;;;2.50;2.27;;;24.50;56.90;;;;;;5031597;28;20849;-66
2023/08/30 10:44:48;;;;;;;2.63;2.27;;;24.50;57.00;;;;;;5031586;28;20182;-68
2023/08/30 10:47:35;;;;;;;2.23;1.90;;;24.50;56.90;;;;;;5031857;28;20415;-68
2023/08/30 10:50:05;;;;;;;2.33;2.10;;;24.50;57.00;;;;;;5030596;28;20395;-68
2023/08/30 10:52:30;;;;;;;2.57;2.33;;;24.50;57.50;;;;;;5031520;28;20426;-68
2023/08/30 10:55:10;;;;;;;2.30;2.10;;;24.50;56.90;;;;;;5031529;28;20406;-68
2023/08/30 10:57:36;;;;;;;3.33;2.17;;;24.50;57.00;;;;;;5029593;28;20206;-68
2023/08/30 11:00:17;;;;;;;2.30;1.97;;;24.50;56.90;;;;;;5031141;28;20410;-68
2023/08/30 11:02:48;;;;;;;2.20;1.97;;;24.50;57.00;;;;;;5031409;28;20442;-68
2023/08/30 11:05:16;;;;;;;2.30;2.10;;;24.50;57.00;;;;;;5030998;28;20461;-66
2023/08/30 11:07:43;;;;;;;2.20;2.00;;;24.50;57.00;;;;;;5031322;28;20415;-67
2023/08/30 11:10:09;;;;;;;4.60;2.10;;;24.50;56.90;;;;;;5031035;28;20406;-68
2023/08/30 11:12:35;;;;;;;3.50;2.30;;;24.50;56.90;;;;;;5031031;28;20434;-67
2023/08/30 11:15:02;;;;;;;1.90;1.80;;;24.50;56.90;;;;;;5031263;28;20414;-67
2023/08/30 11:17:28;;;;;;;3.27;2.40;;;24.50;56.90;;;;;;5031312;28;20406;-68
2023/08/30 11:20:14;;;;;;;2.50;2.13;;;24.50;56.90;;;;;;5035376;28;20966;-68
2023/08/30 11:22:42;;;;;;;2.43;2.23;;;24.50;56.90;;;;;;5034728;28;20429;-68
2023/08/30 11:25:09;;;;;;;3.13;2.27;;;24.50;56.90;;;;;;5034661;28;20931;-68
2023/08/30 11:27:34;;;;;;;2.47;2.27;;;24.50;56.90;;;;;;5034668;28;20417;-67
2023/08/30 11:30:05;;;;;;;2.20;1.90;;;24.50;57.00;;;;;;5034550;28;20425;-68
2023/08/30 11:32:37;;;;;;;2.13;1.93;;;24.50;56.90;;;;;;5034505;28;20215;-68
2023/08/30 11:35:04;;;;;;;2.10;2.00;;;24.60;57.00;;;;;;5034620;28;20941;-68
2023/08/30 11:37:30;;;;;;;2.10;1.90;;;24.50;56.90;;;;;;5034519;28;20497;-68
2023/08/30 11:39:56;;;;;;;3.07;2.43;;;24.50;56.90;;;;;;5034357;28;20529;-69
2023/08/30 11:42:22;;;;;;;2.30;2.10;;;24.50;56.90;;;;;;5034347;28;20869;-69
2023/08/30 11:44:49;;;;;;;1.80;1.70;;;24.60;57.00;;;;;;5034586;28;20402;-68
2023/08/30 11:47:23;;;;;;;2.50;2.00;;;24.50;56.90;;;;;;5034350;28;20221;-68
2023/08/30 11:49:52;;;;;;;1.90;1.70;;;24.60;57.00;;;;;;5034166;28;20418;-67
2023/08/30 11:52:19;;;;;;;2.10;1.90;;;24.60;57.50;;;;;;5034109;28;20796;-68
2023/08/30 11:54:47;;;;;;;2.40;2.13;;;24.50;56.90;;;;;;5034182;28;20461;-68
2023/08/30 11:57:13;;;;;;;2.47;1.80;;;24.60;57.00;;;;;;5034109;28;20437;-67
2023/08/30 11:59:39;;;;;;;2.43;2.23;;;24.60;57.00;;;;;;5034074;28;20411;-68
2023/08/30 12:02:06;;;;;;;2.33;2.13;;;24.60;57.00;;;;;;5033838;28;20343;-69
2023/08/30 12:04:32;;;;;;;2.03;1.70;;;24.60;57.00;;;;;;5034291;28;21071;-68
2023/08/30 12:06:58;;;;;;;2.10;1.90;;;24.60;57.00;;;;;;5033931;28;20544;-68
2023/08/30 12:09:30;;;;;;;1.93;1.83;;;24.60;57.00;;;;;;5033847;28;20168;-67
2023/08/30 12:12:06;;;;;;;2.67;2.00;;;24.60;57.00;;;;;;5033575;28;20418;-69
2023/08/30 12:14:33;;;;;;;3.03;2.47;;;24.60;57.00;;;;;;5033855;28;20394;-68
2023/08/30 12:17:00;;;;;;;2.17;1.97;;;24.60;57.00;;;;;;5033780;28;20411;-68
2023/08/30 12:19:28;;;;;;;2.40;2.20;;;24.60;57.00;;;;;;5033752;28;20414;-68
2023/08/30 12:21:53;;;;;;;2.40;2.20;;;24.60;57.00;;;;;;5032191;28;21016;-68
2023/08/30 12:24:19;;;;;;;2.30;2.00;;;24.60;57.00;;;;;;5033564;28;20493;-67
2023/08/30 12:26:44;;;;;;;1.80;1.70;;;24.60;57.00;;;;;;5033684;28;20554;-68
2023/08/30 12:29:10;;;;;;;1.80;1.70;;;24.60;57.00;;;;;;5033258;28;20671;-68
2023/08/30 12:31:36;;;;;;;2.10;2.00;;;24.60;57.00;;;;;;5033008;28;20203;-67
2023/08/30 12:34:02;;;;;;;2.93;2.63;;;24.60;57.00;;;;;;5033475;28;20191;-69
2023/08/30 12:36:27;;;;;;;2.00;1.90;;;24.60;57.00;;;;;;5033566;28;20414;-68
2023/08/30 12:38:53;;;;;;;2.17;1.97;;;24.60;57.00;;;;;;5032471;28;20262;-68
2023/08/30 12:41:21;;;;;;;2.10;1.70;;;24.60;57.50;;;;;;5033645;28;20204;-68
2023/08/30 12:43:47;;;;;;;1.93;1.73;;;24.60;57.00;;;;;;5033157;28;20182;-69
2023/08/30 12:46:12;;;;;;;2.50;2.30;;;24.60;57.00;;;;;;5032717;28;20454;-68